createdAt,value
2022-10-05T00:02:23.797Z,8.90
2022-10-05T00:04:54.901Z,9.00
2022-10-05T00:07:25.635Z,9.00
2022-10-05T00:09:56.400Z,8.90
2022-10-05T00:12:25.984Z,9.00
2022-10-05T00:14:57.775Z,9.00
2022-10-05T00:17:28.299Z,8.90
2022-10-05T00:19:56.491Z,8.90
2022-10-05T00:22:31.762Z,9.00
2022-10-05T00:25:01.109Z,8.90
2022-10-05T00:27:34.027Z,9.00
2022-10-05T00:30:12.719Z,8.90
2022-10-05T00:32:40.695Z,8.90
2022-10-05T00:35:09.428Z,8.90
2022-10-05T00:37:38.961Z,8.90
2022-10-05T00:40:15.657Z,8.90
2022-10-05T00:42:53.812Z,8.90
2022-10-05T00:45:27.397Z,8.90
2022-10-05T00:48:07.240Z,8.90
2022-10-05T00:51:03.989Z,8.90
2022-10-05T00:53:42.550Z,8.80
2022-10-05T00:56:27.926Z,8.80
2022-10-05T00:59:09.326Z,8.80
2022-10-05T01:01:45.148Z,8.90
2022-10-05T01:04:21.536Z,9.00
2022-10-05T01:07:00.352Z,9.10
2022-10-05T01:09:37.696Z,9.20
2022-10-05T01:12:14.037Z,9.30
2022-10-05T01:14:52.897Z,9.40
2022-10-05T01:17:25.195Z,9.60
2022-10-05T01:20:27.093Z,9.70
2022-10-05T01:23:25.390Z,9.80
2022-10-05T01:26:05.861Z,9.90
2022-10-05T01:28:38.898Z,10.00
2022-10-05T01:31:13.284Z,10.00
2022-10-05T01:33:46.876Z,10.10
2022-10-05T01:36:22.551Z,10.10
2022-10-05T01:38:58.057Z,10.20
2022-10-05T01:41:33.607Z,10.20
2022-10-05T01:44:09.480Z,10.30
2022-10-05T01:46:40.190Z,10.30
2022-10-05T01:49:23.500Z,10.30
2022-10-05T01:52:06.636Z,10.30
2022-10-05T01:54:45.540Z,10.30
2022-10-05T01:57:21.263Z,10.30
2022-10-05T02:00:03.746Z,10.30
2022-10-05T02:02:46.314Z,10.30
2022-10-05T02:05:20.540Z,10.30
2022-10-05T02:07:53.635Z,10.30
2022-10-05T02:10:26.826Z,10.30
2022-10-05T02:13:01.490Z,10.30
2022-10-05T02:15:39.438Z,10.30
2022-10-05T02:18:11.702Z,10.30
2022-10-05T02:20:42.830Z,10.30
2022-10-05T02:23:15.451Z,10.30
2022-10-05T02:25:47.605Z,10.30
2022-10-05T02:28:21.378Z,10.30
2022-10-05T02:30:56.032Z,10.20
2022-10-05T02:33:29.456Z,10.20
2022-10-05T02:36:03.187Z,10.20
2022-10-05T02:38:38.638Z,10.20
2022-10-05T02:41:15.361Z,10.10
2022-10-05T02:43:50.091Z,10.10
2022-10-05T02:46:31.941Z,10.10
2022-10-05T02:49:12.767Z,10.10
2022-10-05T02:51:50.109Z,10.10
2022-10-05T02:54:27.895Z,10.10
2022-10-05T02:57:01.008Z,10.00
2022-10-05T02:59:35.830Z,10.00
2022-10-05T03:02:15.510Z,10.00
2022-10-05T03:04:49.642Z,10.10
2022-10-05T03:07:22.220Z,10.00
2022-10-05T03:10:01.027Z,10.00
2022-10-05T03:12:49.676Z,10.00
2022-10-05T03:15:54.019Z,10.00
2022-10-05T03:18:35.782Z,10.00
2022-10-05T03:21:15.118Z,10.00
2022-10-05T03:24:05.756Z,10.00
2022-10-05T03:26:42.262Z,10.00
2022-10-05T03:29:24.732Z,10.00
2022-10-05T03:32:01.497Z,9.90
2022-10-05T03:34:38.703Z,10.00
2022-10-05T03:37:15.719Z,10.00
2022-10-05T03:39:51.975Z,10.00
2022-10-05T03:42:29.424Z,10.00
2022-10-05T03:45:02.323Z,9.90
2022-10-05T03:47:41.028Z,9.90
2022-10-05T03:50:31.190Z,10.00
2022-10-05T03:53:03.787Z,10.00
2022-10-05T03:55:37.954Z,10.00
2022-10-05T03:58:12.521Z,10.00
2022-10-05T04:00:42.756Z,10.00
2022-10-05T04:03:17.110Z,10.00
2022-10-05T04:05:51.410Z,10.00
2022-10-05T04:08:27.644Z,10.00
2022-10-05T04:10:58.278Z,10.00
2022-10-05T04:13:35.343Z,10.00
2022-10-05T04:16:09.317Z,10.00
2022-10-05T04:18:41.237Z,10.00
2022-10-05T04:21:23.475Z,10.10
2022-10-05T04:23:59.503Z,10.00
2022-10-05T04:26:35.915Z,10.00
2022-10-05T04:29:12.675Z,10.00
2022-10-05T04:31:58.032Z,10.10
2022-10-05T04:34:45.529Z,10.00
2022-10-05T04:37:22.359Z,10.10
2022-10-05T04:40:01.794Z,10.10
2022-10-05T04:42:35.396Z,10.10
2022-10-05T04:45:11.258Z,10.10
2022-10-05T04:48:10.542Z,10.20
2022-10-05T04:50:50.447Z,10.20
2022-10-05T04:53:30.226Z,10.20
2022-10-05T04:56:05.988Z,10.20
2022-10-05T04:58:57.924Z,10.20
2022-10-05T05:01:42.792Z,10.20
2022-10-05T05:04:34.934Z,10.20
2022-10-05T05:07:18.976Z,10.20
2022-10-05T05:10:08.414Z,10.20
2022-10-05T05:12:43.492Z,10.20
2022-10-05T05:15:23.780Z,10.20
2022-10-05T05:18:08.089Z,10.20
2022-10-05T05:20:49.311Z,10.20
2022-10-05T05:23:25.034Z,10.20
2022-10-05T05:26:04.207Z,10.20
2022-10-05T05:28:43.342Z,10.20
2022-10-05T05:31:18.101Z,10.30
2022-10-05T05:33:56.212Z,10.20
2022-10-05T05:36:41.730Z,10.30
2022-10-05T05:39:24.515Z,10.30
2022-10-05T05:42:01.266Z,10.30
2022-10-05T05:44:39.018Z,10.30
2022-10-05T05:47:20.128Z,10.30
2022-10-05T05:50:06.312Z,10.30
